createdAt,value
2023-12-13T00:01:47.670Z,3.40
2023-12-13T00:04:14.652Z,3.46
2023-12-13T00:06:41.203Z,3.37
2023-12-13T00:09:10.647Z,3.41
2023-12-13T00:11:37.364Z,3.37
2023-12-13T00:14:05.946Z,3.47
2023-12-13T00:16:32.482Z,3.53
2023-12-13T00:18:59.029Z,3.46
2023-12-13T00:21:25.581Z,3.62
2023-12-13T00:23:52.117Z,3.54
2023-12-13T00:26:19.712Z,3.57
2023-12-13T00:28:47.014Z,3.39
2023-12-13T00:31:13.975Z,3.40
2023-12-13T00:33:40.552Z,3.50
2023-12-13T00:36:08.079Z,3.58
2023-12-13T00:38:34.578Z,3.57
2023-12-13T00:41:01.414Z,3.37
2023-12-13T00:43:28.051Z,3.15
2023-12-13T00:45:54.860Z,3.28
2023-12-13T00:48:21.460Z,2.90
2023-12-13T00:50:48.014Z,3.27
2023-12-13T00:53:14.628Z,2.96
2023-12-13T00:55:41.158Z,3.11
2023-12-13T00:58:07.720Z,2.95
2023-12-13T01:00:34.302Z,2.96
2023-12-13T01:03:00.776Z,3.19
2023-12-13T01:05:27.593Z,3.11
2023-12-13T01:07:54.246Z,3.13
2023-12-13T01:10:21.485Z,3.49
2023-12-13T01:12:48.043Z,3.17
2023-12-13T01:15:14.605Z,3.40
2023-12-13T01:17:41.069Z,3.39
2023-12-13T01:20:10.515Z,3.35
2023-12-13T01:22:37.256Z,3.30
2023-12-13T01:25:04.255Z,3.56
2023-12-13T01:27:31.665Z,3.30
2023-12-13T01:29:58.405Z,3.42
2023-12-13T01:32:24.868Z,3.61
2023-12-13T01:34:51.453Z,3.55
2023-12-13T01:37:17.990Z,3.78
2023-12-13T01:39:44.552Z,3.54
2023-12-13T01:42:11.035Z,3.43
2023-12-13T01:44:39.361Z,3.44
2023-12-13T01:47:06.079Z,3.37
2023-12-13T01:49:32.644Z,3.70
2023-12-13T01:51:59.697Z,3.60
2023-12-13T01:54:26.582Z,3.45
2023-12-13T01:56:53.450Z,3.76
2023-12-13T01:59:20.144Z,3.81
2023-12-13T02:01:46.741Z,3.94
2023-12-13T02:04:15.169Z,3.86
2023-12-13T02:06:43.222Z,3.80
2023-12-13T02:09:10.194Z,3.79
2023-12-13T02:11:37.473Z,3.68
2023-12-13T02:14:05.656Z,3.91
2023-12-13T02:16:33.881Z,3.89
2023-12-13T02:19:00.606Z,4.15
2023-12-13T02:21:27.085Z,4.05
2023-12-13T02:23:56.890Z,3.96
2023-12-13T02:26:23.736Z,4.01
2023-12-13T02:28:50.578Z,4.24
2023-12-13T02:46:25.149Z,3.39
2023-12-13T02:48:51.796Z,3.67
2023-12-13T02:51:18.315Z,3.64
2023-12-13T02:53:45.792Z,3.63
2023-12-13T02:56:12.325Z,3.71
2023-12-13T02:58:38.911Z,3.82
2023-12-13T03:01:05.505Z,3.93
2023-12-13T03:03:32.011Z,3.92
2023-12-13T03:05:58.496Z,4.00
2023-12-13T03:08:24.968Z,4.06
2023-12-13T03:10:51.510Z,4.02
2023-12-13T03:13:18.037Z,3.97
2023-12-13T03:15:44.549Z,3.59
2023-12-13T03:18:11.277Z,3.86
2023-12-13T03:20:37.742Z,3.86
2023-12-13T03:23:08.414Z,3.66
2023-12-13T03:25:35.295Z,3.91
2023-12-13T03:28:01.906Z,3.91
2023-12-13T03:30:28.478Z,3.97
2023-12-13T03:32:54.927Z,4.02
2023-12-13T03:35:21.533Z,3.74
2023-12-13T03:37:49.204Z,3.87
2023-12-13T03:40:16.180Z,3.94
2023-12-13T03:42:42.682Z,3.93
2023-12-13T03:45:09.589Z,4.04
2023-12-13T03:47:36.556Z,4.17
2023-12-13T03:50:03.523Z,4.11
2023-12-13T03:52:30.120Z,4.16
2023-12-13T03:54:57.048Z,4.03
2023-12-13T03:57:23.559Z,4.05
2023-12-13T03:59:50.061Z,4.23
2023-12-13T04:02:16.602Z,4.33
2023-12-13T04:04:43.332Z,4.10
2023-12-13T04:07:10.583Z,4.25
2023-12-13T04:09:37.062Z,4.29
2023-12-13T04:12:04.070Z,4.25
2023-12-13T04:14:30.642Z,4.48
2023-12-13T04:16:57.233Z,4.64
2023-12-13T04:19:23.768Z,4.26
2023-12-13T04:21:50.360Z,4.22
2023-12-13T04:24:16.967Z,4.28
2023-12-13T04:26:43.581Z,4.33
2023-12-13T04:29:10.073Z,4.36
2023-12-13T04:31:36.582Z,4.52
2023-12-13T04:34:03.226Z,4.42
2023-12-13T04:36:29.691Z,4.84
2023-12-13T04:38:56.207Z,4.56
2023-12-13T04:41:22.731Z,4.69
2023-12-13T04:43:49.594Z,4.53
2023-12-13T04:46:16.197Z,4.27
2023-12-13T04:48:42.825Z,4.43
2023-12-13T04:51:09.416Z,4.48
2023-12-13T04:53:38.048Z,4.47
2023-12-13T04:56:04.856Z,4.36
2023-12-13T04:58:31.377Z,4.30
2023-12-13T05:00:58.409Z,4.21
2023-12-13T05:03:24.952Z,4.26
2023-12-13T05:05:51.575Z,4.25
2023-12-13T05:08:18.100Z,4.08
2023-12-13T05:10:45.043Z,4.14
2023-12-13T05:13:11.774Z,4.13
2023-12-13T05:15:38.217Z,4.04
2023-12-13T05:18:05.634Z,3.87
2023-12-13T05:20:32.367Z,3.99
2023-12-13T05:22:58.919Z,4.11
2023-12-13T05:25:25.481Z,3.90
2023-12-13T05:27:52.168Z,4.20
2023-12-13T05:30:19.496Z,4.17
2023-12-13T05:32:46.250Z,4.01
2023-12-13T05:35:12.744Z,4.28
2023-12-13T05:37:39.305Z,4.06
2023-12-13T05:40:06.733Z,4.11
2023-12-13T05:42:34.663Z,4.26
2023-12-13T05:45:01.264Z,4.07
2023-12-13T05:47:30.543Z,4.27
2023-12-13T05:49:58.281Z,4.08
2023-12-13T05:52:25.103Z,4.12
2023-12-13T05:54:51.618Z,4.27
2023-12-13T05:57:18.125Z,4.36
2023-12-13T05:59:44.665Z,4.31
2023-12-13T06:02:11.203Z,4.49
2023-12-13T06:04:37.931Z,4.50
2023-12-13T06:07:04.481Z,4.55
2023-12-13T06:09:30.995Z,4.27
2023-12-13T06:11:57.539Z,4.38
2023-12-13T06:14:24.048Z,4.36
2023-12-13T06:16:50.627Z,4.54
2023-12-13T06:19:17.161Z,4.54
2023-12-13T06:21:43.702Z,4.48
2023-12-13T06:38:24.147Z,4.63
2023-12-13T06:41:17.852Z,4.41
2023-12-13T06:43:53.828Z,4.64
2023-12-13T06:46:23.588Z,4.62
2023-12-13T06:49:11.420Z,4.50
2023-12-13T06:51:38.068Z,4.70
2023-12-13T06:54:04.856Z,4.62
2023-12-13T06:56:37.043Z,4.57
2023-12-13T06:59:03.775Z,4.66
2023-12-13T07:01:30.379Z,4.72
2023-12-13T07:03:57.164Z,4.38
2023-12-13T07:06:23.671Z,4.56
2023-12-13T07:08:50.211Z,4.50
2023-12-13T07:19:14.678Z,4.58
2023-12-13T07:21:41.461Z,4.59
2023-12-13T07:24:08.036Z,4.89
2023-12-13T07:26:34.588Z,4.95
2023-12-13T07:29:02.405Z,4.74
2023-12-13T07:31:43.186Z,4.60
2023-12-13T07:34:10.316Z,4.67
2023-12-13T07:36:37.815Z,5.08
2023-12-13T07:39:05.016Z,4.66
2023-12-13T08:36:16.904Z,4.88
2023-12-13T08:38:43.584Z,4.77
2023-12-13T08:41:13.010Z,4.84
2023-12-13T08:43:40.148Z,4.72
2023-12-13T08:47:22.105Z,4.65
2023-12-13T08:49:48.816Z,4.71
2023-12-13T08:52:49.167Z,4.98
2023-12-13T08:58:08.296Z,4.54
2023-12-13T09:05:13.843Z,4.56
2023-12-13T09:07:48.925Z,4.72
2023-12-13T09:10:43.899Z,4.72
2023-12-13T09:13:19.717Z,4.88
2023-12-13T09:15:54.866Z,4.74
2023-12-13T09:19:32.997Z,4.94
2023-12-13T09:22:28.540Z,4.76
2023-12-13T09:33:38.459Z,4.84
2023-12-13T09:39:42.972Z,4.62
2023-12-13T09:49:37.749Z,4.82
2023-12-13T09:56:23.576Z,4.61
2023-12-13T09:59:32.692Z,4.63
2023-12-13T10:02:00.167Z,4.86
2023-12-13T10:05:19.059Z,4.99
2023-12-13T10:18:05.147Z,5.06
2023-12-13T10:20:52.614Z,4.93
2023-12-13T10:23:19.768Z,4.75
2023-12-13T10:25:49.383Z,4.81
2023-12-13T10:28:16.501Z,4.69
2023-12-13T10:30:43.503Z,4.75
2023-12-13T10:41:49.175Z,4.94
2023-12-13T10:48:23.043Z,5.17
2023-12-13T10:50:51.565Z,5.11
2023-12-13T10:53:24.332Z,5.07
2023-12-13T10:59:07.942Z,4.75
2023-12-13T11:01:35.775Z,4.81
2023-12-13T11:04:10.225Z,4.81
2023-12-13T11:06:48.596Z,4.90
2023-12-13T11:09:19.513Z,4.84
2023-12-13T11:12:10.781Z,4.85
2023-12-13T11:14:42.436Z,4.80
2023-12-13T11:17:09.254Z,4.69
2023-12-13T11:19:42.684Z,4.67
2023-12-13T11:22:12.988Z,4.74
2023-12-13T11:28:49.834Z,4.61
2023-12-13T11:31:23.744Z,4.72
2023-12-13T11:34:32.963Z,4.98
2023-12-13T11:41:18.651Z,4.88
2023-12-13T11:43:48.830Z,4.86
2023-12-13T11:46:38.049Z,5.05
2023-12-13T11:49:34.231Z,4.77
2023-12-13T11:59:22.932Z,4.77
2023-12-13T12:05:32.079Z,4.53
2023-12-13T12:08:10.281Z,4.61
2023-12-13T12:10:36.913Z,4.64
2023-12-13T12:13:04.851Z,4.79
2023-12-13T12:15:32.672Z,5.01
2023-12-13T12:18:31.645Z,5.08
2023-12-13T12:25:34.348Z,4.97
2023-12-13T12:28:01.264Z,4.86
2023-12-13T12:30:28.344Z,5.07
2023-12-13T12:32:57.040Z,4.93
2023-12-13T12:35:23.649Z,5.09
2023-12-13T12:37:50.291Z,5.18
2023-12-13T12:40:17.520Z,4.90
2023-12-13T12:42:46.563Z,5.02
2023-12-13T12:45:13.340Z,5.05
2023-12-13T12:47:40.129Z,5.11
2023-12-13T12:50:07.830Z,4.96
2023-12-13T12:52:34.539Z,5.15
2023-12-13T12:55:01.021Z,5.47
2023-12-13T12:57:27.678Z,5.09
2023-12-13T12:59:54.269Z,5.08
2023-12-13T13:02:20.934Z,4.82
2023-12-13T13:04:48.400Z,5.27
2023-12-13T13:07:15.549Z,5.00
2023-12-13T13:09:42.050Z,5.08
2023-12-13T13:12:08.551Z,5.11
2023-12-13T13:14:35.144Z,5.11
2023-12-13T13:17:02.050Z,5.27
2023-12-13T13:19:28.643Z,5.33
2023-12-13T13:21:57.758Z,5.17
2023-12-13T13:24:27.130Z,5.14
2023-12-13T13:26:53.627Z,5.22
2023-12-13T13:29:20.160Z,5.27
2023-12-13T13:31:46.769Z,5.31
2023-12-13T13:34:13.246Z,5.48
2023-12-13T13:36:39.718Z,5.09
2023-12-13T13:39:06.465Z,5.31
2023-12-13T13:41:32.979Z,5.20
2023-12-13T13:44:00.538Z,5.30
2023-12-13T13:46:27.146Z,5.16
2023-12-13T13:48:55.552Z,5.06
2023-12-13T13:51:22.244Z,5.32
2023-12-13T13:53:52.723Z,5.27
2023-12-13T14:00:58.388Z,5.14
2023-12-13T14:03:41.397Z,4.98
2023-12-13T14:06:08.463Z,5.12
2023-12-13T14:08:40.011Z,5.12
2023-12-13T14:11:14.670Z,4.93
2023-12-13T14:13:41.413Z,5.11
2023-12-13T14:16:08.375Z,5.39
2023-12-13T14:18:35.349Z,5.33
2023-12-13T14:28:39.248Z,5.42
2023-12-13T14:31:06.461Z,5.20
2023-12-13T14:33:33.493Z,5.32
2023-12-13T14:36:00.640Z,5.48
2023-12-13T14:38:35.014Z,5.18
2023-12-13T14:41:02.098Z,5.27
2023-12-13T14:43:29.104Z,5.00
2023-12-13T14:50:59.040Z,4.82
2023-12-13T14:53:29.586Z,4.81
2023-12-13T14:56:24.875Z,5.06
2023-12-13T14:59:04.463Z,5.28
2023-12-13T15:01:56.436Z,4.90
2023-12-13T15:04:24.755Z,4.97
2023-12-13T15:06:51.681Z,5.23
2023-12-13T15:09:47.703Z,5.22
2023-12-13T15:12:35.024Z,5.18
2023-12-13T15:17:54.354Z,4.90
2023-12-13T15:18:21.323Z,4.74
2023-12-13T15:20:50.334Z,4.70
2023-12-13T15:27:07.720Z,4.62
2023-12-13T15:30:35.120Z,4.99
2023-12-13T15:33:17.788Z,4.84
2023-12-13T15:35:58.762Z,4.90
2023-12-13T15:42:10.248Z,4.89
2023-12-13T15:44:38.442Z,4.94
2023-12-13T15:47:12.113Z,5.11
2023-12-13T15:49:38.742Z,5.07
2023-12-13T15:52:16.378Z,5.23
2023-12-13T15:54:46.602Z,4.95
2023-12-13T15:57:22.738Z,4.88
2023-12-13T15:59:49.397Z,4.88
2023-12-13T16:03:00.520Z,5.20
2023-12-13T16:05:31.801Z,4.93
2023-12-13T16:08:24.763Z,4.95
2023-12-13T16:11:14.811Z,4.81
2023-12-13T16:14:27.906Z,4.99
2023-12-13T16:16:58.042Z,5.11
2023-12-13T16:19:25.036Z,4.92
2023-12-13T16:21:59.530Z,5.20
2023-12-13T16:24:29.049Z,5.20
2023-12-13T16:27:10.321Z,5.14
2023-12-13T16:30:02.348Z,4.94
2023-12-13T16:32:43.778Z,4.74
2023-12-13T16:35:19.489Z,4.93
2023-12-13T16:37:46.170Z,4.96
2023-12-13T16:40:12.731Z,4.97
2023-12-13T16:42:40.247Z,4.78
2023-12-13T16:45:07.822Z,4.70
2023-12-13T16:47:35.089Z,4.80
2023-12-13T16:50:01.736Z,4.90
2023-12-13T16:52:38.786Z,5.08
2023-12-13T16:55:06.209Z,4.79
2023-12-13T16:57:32.741Z,4.72
2023-12-13T16:59:59.330Z,5.08
2023-12-13T17:02:42.817Z,4.97
2023-12-13T17:05:12.270Z,4.88
2023-12-13T17:07:38.948Z,5.09
2023-12-13T17:10:32.778Z,4.93
2023-12-13T17:12:59.376Z,4.86
2023-12-13T17:15:26.892Z,4.93
2023-12-13T17:17:53.733Z,5.14
2023-12-13T17:20:20.698Z,4.81
2023-12-13T17:22:47.554Z,4.96
2023-12-13T17:25:17.383Z,4.84
2023-12-13T17:27:44.227Z,4.88
2023-12-13T17:30:11.325Z,4.98
2023-12-13T17:32:38.182Z,5.06
2023-12-13T17:35:08.748Z,5.10
2023-12-13T17:37:35.483Z,4.90
2023-12-13T17:40:02.042Z,5.24
2023-12-13T17:42:29.834Z,4.88
2023-12-13T17:44:56.993Z,4.89
2023-12-13T17:47:25.460Z,4.57
2023-12-13T17:49:55.520Z,4.89
2023-12-13T17:52:22.324Z,4.81
2023-12-13T17:59:35.443Z,4.61
2023-12-13T18:02:02.251Z,4.59
2023-12-13T18:04:34.673Z,4.57
2023-12-13T18:07:01.575Z,4.79
2023-12-13T18:09:27.982Z,4.90
2023-12-13T18:11:54.508Z,4.67
2023-12-13T18:14:22.212Z,4.57
2023-12-13T18:16:48.815Z,4.62
2023-12-13T18:19:15.434Z,4.63
2023-12-13T18:21:42.067Z,4.52
2023-12-13T18:24:08.521Z,4.59
2023-12-13T18:26:35.075Z,4.41
2023-12-13T18:29:04.040Z,4.38
2023-12-13T18:31:30.805Z,4.33
2023-12-13T18:33:57.368Z,4.64
2023-12-13T18:36:23.887Z,4.21
2023-12-13T18:38:50.400Z,4.39
2023-12-13T18:41:16.901Z,4.44
2023-12-13T18:43:43.405Z,4.43
2023-12-13T18:46:09.893Z,4.62
2023-12-13T18:48:36.592Z,4.51
2023-12-13T18:51:03.265Z,4.69
2023-12-13T18:53:31.071Z,4.43
2023-12-13T18:55:58.826Z,4.38
2023-12-13T18:58:29.019Z,4.70
2023-12-13T19:00:56.355Z,4.35
2023-12-13T19:03:23.335Z,4.29
2023-12-13T19:05:49.879Z,4.50
2023-12-13T19:08:16.435Z,4.31
2023-12-13T19:10:43.035Z,4.28
2023-12-13T19:13:09.559Z,4.56
2023-12-13T19:15:36.120Z,4.31
2023-12-13T19:18:03.128Z,4.06
2023-12-13T19:20:29.686Z,4.25
2023-12-13T19:22:56.289Z,4.46
2023-12-13T19:25:22.973Z,4.39
2023-12-13T19:27:53.862Z,4.52
2023-12-13T19:30:20.879Z,4.27
2023-12-13T19:32:47.494Z,4.36
2023-12-13T19:35:16.572Z,4.54
2023-12-13T19:37:43.533Z,4.24
2023-12-13T19:40:15.711Z,4.16
2023-12-13T19:42:45.304Z,4.18
2023-12-13T19:45:12.033Z,4.35
2023-12-13T19:47:38.846Z,4.44
2023-12-13T19:50:06.083Z,4.31
2023-12-13T19:52:32.641Z,4.34
2023-12-13T19:55:04.234Z,4.47
2023-12-13T19:57:33.597Z,4.31
2023-12-13T20:00:00.312Z,4.36
2023-12-13T20:02:26.932Z,4.35
2023-12-13T20:04:53.387Z,4.56
2023-12-13T20:07:19.907Z,4.37
2023-12-13T20:09:46.455Z,3.93
2023-12-13T20:12:12.957Z,4.21
2023-12-13T20:14:43.348Z,4.25
2023-12-13T20:17:09.986Z,4.00
2023-12-13T20:19:36.813Z,4.04
2023-12-13T20:22:04.259Z,3.93
2023-12-13T20:24:30.797Z,4.07
2023-12-13T20:27:00.955Z,4.10
2023-12-13T20:29:28.155Z,4.19
2023-12-13T20:31:54.923Z,3.95
2023-12-13T20:34:21.623Z,4.34
2023-12-13T20:36:48.228Z,4.10
2023-12-13T20:39:14.722Z,3.93
2023-12-13T20:41:41.210Z,4.10
2023-12-13T20:44:07.908Z,4.24
2023-12-13T20:46:34.655Z,4.02
2023-12-13T20:49:01.102Z,4.12
2023-12-13T20:51:27.683Z,3.96
2023-12-13T20:53:54.202Z,3.84
2023-12-13T20:56:21.864Z,3.97
2023-12-13T20:58:49.738Z,4.10
2023-12-13T21:01:16.582Z,4.13
2023-12-13T21:03:43.362Z,3.96
2023-12-13T21:06:10.057Z,4.02
2023-12-13T21:08:37.441Z,3.99
2023-12-13T21:11:04.275Z,3.81
2023-12-13T21:13:30.919Z,4.04
2023-12-13T21:15:57.316Z,4.34
2023-12-13T21:18:23.931Z,3.78
2023-12-13T21:20:50.541Z,4.10
2023-12-13T21:23:17.149Z,3.93
2023-12-13T21:25:43.699Z,4.05
2023-12-13T21:28:10.336Z,3.73
2023-12-13T21:30:37.111Z,3.95
2023-12-13T21:33:04.101Z,3.76
2023-12-13T21:35:30.651Z,3.98
2023-12-13T21:37:57.268Z,3.92
2023-12-13T21:40:23.768Z,3.98
2023-12-13T21:42:50.370Z,3.99
2023-12-13T21:45:16.930Z,3.98
2023-12-13T21:47:43.617Z,3.90
2023-12-13T21:50:10.672Z,3.82
2023-12-13T21:52:38.777Z,3.74
2023-12-13T21:55:29.087Z,3.74
2023-12-13T22:01:43.833Z,3.91
2023-12-13T22:12:30.546Z,3.98
2023-12-13T22:15:34.679Z,3.56
2023-12-13T22:21:00.005Z,3.96
2023-12-13T22:23:57.564Z,3.78
2023-12-13T22:26:47.331Z,3.74
2023-12-13T22:33:09.026Z,3.93
2023-12-13T22:36:03.413Z,3.66
2023-12-13T22:38:54.483Z,3.52
2023-12-13T22:41:42.489Z,3.68
2023-12-13T22:44:22.344Z,3.63
2023-12-13T22:47:18.395Z,3.82
2023-12-13T22:50:00.412Z,3.45
2023-12-13T22:52:46.771Z,3.45
2023-12-13T22:55:49.545Z,3.78
2023-12-13T22:58:16.066Z,3.68
2023-12-13T23:00:42.553Z,3.74
2023-12-13T23:03:09.058Z,3.69
2023-12-13T23:05:36.414Z,3.54
2023-12-13T23:08:03.406Z,3.60
2023-12-13T23:10:30.072Z,3.50
2023-12-13T23:12:57.258Z,3.59
2023-12-13T23:15:23.776Z,3.45
2023-12-13T23:17:50.405Z,3.55
2023-12-13T23:20:17.119Z,3.51
2023-12-13T23:22:43.653Z,3.75
2023-12-13T23:25:10.329Z,3.45
2023-12-13T23:27:36.761Z,3.44
2023-12-13T23:30:04.169Z,3.34
2023-12-13T23:32:30.850Z,3.22
2023-12-13T23:34:57.400Z,3.53
2023-12-13T23:37:23.941Z,3.32
2023-12-13T23:39:50.448Z,3.44
2023-12-13T23:42:16.951Z,3.48
2023-12-13T23:44:43.425Z,3.37
2023-12-13T23:47:10.622Z,3.62
2023-12-13T23:49:37.288Z,3.55
2023-12-13T23:52:03.717Z,3.60
2023-12-13T23:54:30.234Z,3.26
2023-12-13T23:56:56.837Z,3.40
2023-12-13T23:59:23.458Z,3.53
